Time;durP1;ratioP1;P1;durP2;ratioP2;P2;SDS_P1;SDS_P2;PMS_P1;PMS_P2;Temp;Humidity;BMP_temperature;BMP_pressure;BME280_temperature;BME280_humidity;BME280_pressure;Samples;Min_cycle;Max_cycle;Signal;HPM_P1;HPM_P2
2023/05/05 00:00:28;;;;;;;13.18;8.93;;;17.40;99.90;;;18.05;83.43;101292.31;5113710;28;20065;-71
2023/05/05 00:02:57;;;;;;;10.82;5.93;;;17.60;99.90;;;17.78;81.35;101282.38;5109457;28;20039;-71
2023/05/05 00:05:25;;;;;;;9.35;5.80;;;17.50;99.90;;;17.83;78.40;101289.34;5113181;28;20446;-71
2023/05/05 00:07:54;;;;;;;7.13;4.63;;;17.50;99.90;;;17.87;76.65;101282.09;5095285;28;20458;-71
2023/05/05 00:10:24;;;;;;;5.53;4.80;;;17.50;99.90;;;18.14;75.58;101278.66;5113446;28;20468;-71
2023/05/05 00:12:52;;;;;;;4.28;3.85;;;17.70;99.90;;;18.29;74.37;101262.13;5113286;28;20039;-71
2023/05/05 00:15:21;;;;;;;5.45;3.58;;;17.90;99.90;;;18.26;72.64;101272.94;5113431;28;20104;-71
2023/05/05 00:17:49;;;;;;;4.75;4.28;;;17.90;99.90;;;18.30;72.36;101269.25;5094694;28;20130;-71
2023/05/05 00:20:17;;;;;;;3.60;3.30;;;17.90;99.90;;;18.46;71.37;101273.28;5113285;28;20382;-71
2023/05/05 00:22:46;;;;;;;3.83;3.33;;;18.10;99.90;;;18.64;71.12;101247.72;5113060;28;20089;-71
2023/05/05 00:25:14;;;;;;;4.93;3.72;;;18.30;99.90;;;18.85;70.36;101272.03;5113153;28;20486;-71
2023/05/05 00:27:44;;;;;;;3.95;3.55;;;18.40;99.90;;;18.82;69.76;101268.56;5113458;28;20039;-71
2023/05/05 00:30:13;;;;;;;4.03;3.57;;;18.60;99.90;;;18.99;69.64;101279.63;5095017;28;20134;-71
2023/05/05 00:32:41;;;;;;;4.07;3.33;;;18.60;99.90;;;19.12;69.57;101280.13;5086809;28;20047;-71
2023/05/05 00:35:10;;;;;;;4.65;3.83;;;18.70;99.90;;;19.22;69.32;101282.41;5113135;28;20036;-71
2023/05/05 00:37:38;;;;;;;4.43;3.83;;;18.80;99.90;;;19.01;70.50;101271.56;5112875;28;20047;-71
2023/05/05 00:40:09;;;;;;;4.70;4.13;;;18.70;99.90;;;19.21;69.88;101283.38;5113120;28;20050;-71
2023/05/05 00:42:41;;;;;;;4.55;4.05;;;18.80;99.90;;;19.29;69.65;101283.09;5078533;28;20048;-71
2023/05/05 00:45:13;;;;;;;4.82;3.78;;;18.90;99.90;;;19.32;69.25;101299.09;5112638;28;20052;-71
2023/05/05 00:47:46;;;;;;;7.70;3.90;;;18.90;99.90;;;19.29;69.05;101307.25;5112754;28;20055;-71
2023/05/05 00:50:23;;;;;;;4.00;3.55;;;18.90;99.90;;;19.31;69.18;101291.97;5113073;28;20040;-71
2023/05/05 00:52:54;;;;;;;5.45;3.92;;;18.80;99.90;;;19.32;68.99;101301.78;5113033;28;20123;-71
2023/05/05 00:55:23;;;;;;;4.20;3.80;;;18.90;99.90;;;19.38;68.98;101301.59;5113331;28;20131;-71
2023/05/05 00:57:52;;;;;;;5.47;4.18;;;18.90;99.90;;;19.40;68.81;101305.13;5112894;28;20046;-71
2023/05/05 01:00:22;;;;;;;5.15;3.78;;;18.90;99.90;;;19.43;68.71;101291.63;5112910;28;20051;-71
2023/05/05 01:02:51;;;;;;;4.28;3.60;;;19.00;99.90;;;19.41;68.66;101302.41;5113048;28;20048;-71
2023/05/05 01:05:22;;;;;;;4.72;3.72;;;19.00;99.90;;;19.42;68.67;101297.88;5094164;28;20043;-71
2023/05/05 01:08:08;;;;;;;4.82;4.32;;;19.00;99.90;;;19.43;68.55;101307.72;5112879;28;20047;-71
2023/05/05 01:10:41;;;;;;;5.03;4.30;;;19.00;99.90;;;18.63;68.50;101171.81;5110412;28;20051;-71
2023/05/05 01:13:26;;;;;;;4.93;4.00;;;19.00;99.90;;;19.32;68.63;101308.06;5094592;28;20503;-71
2023/05/05 01:16:05;;;;;;;4.60;3.88;;;18.90;99.90;;;19.30;69.12;101322.44;5083597;28;20070;-71
2023/05/05 01:18:42;;;;;;;5.80;5.05;;;18.80;99.90;;;19.28;69.33;101313.56;5112844;28;20117;-72
2023/05/05 01:21:15;;;;;;;5.70;4.32;;;18.80;99.90;;;19.19;69.94;101314.72;5088052;28;20109;-71
2023/05/05 01:24:39;;;;;;;6.25;5.00;;;18.70;99.90;;;19.08;70.90;101324.03;5112765;28;20044;-71
2023/05/05 01:27:38;;;;;;;6.78;5.90;;;18.60;99.90;;;18.97;71.65;101331.56;5110012;28;20471;-71
2023/05/05 01:30:24;;;;;;;8.15;5.30;;;18.50;99.90;;;18.84;72.19;101326.56;5110798;28;20100;-71
2023/05/05 01:32:58;;;;;;;7.07;5.65;;;18.40;99.90;;;18.72;72.54;101329.63;5109520;28;20036;-71
2023/05/05 01:35:32;;;;;;;8.18;5.75;;;18.30;99.90;;;18.63;72.80;101331.72;5112402;28;20456;-71
2023/05/05 01:38:06;;;;;;;5.80;4.95;;;18.20;99.90;;;18.50;73.28;101328.53;5112416;28;20050;-71
2023/05/05 01:40:41;;;;;;;7.43;5.22;;;18.00;99.90;;;18.46;73.49;101334.91;5110949;28;20065;-71
2023/05/05 01:43:12;;;;;;;9.95;5.20;;;17.90;99.90;;;18.41;73.99;101328.75;5116370;28;20036;-71
2023/05/05 01:45:43;;;;;;;8.13;4.60;;;17.90;99.90;;;18.42;74.29;101338.59;5116243;28;20100;-71
2023/05/05 01:48:17;;;;;;;7.57;5.10;;;17.90;99.90;;;18.35;74.51;101325.38;5097932;28;20124;-71
2023/05/05 01:50:46;;;;;;;8.75;5.30;;;17.90;99.90;;;18.31;74.64;101327.25;5116223;28;20048;-71
2023/05/05 01:53:17;;;;;;;8.95;5.45;;;17.90;99.90;;;18.25;74.76;101327.44;5097898;28;20587;-71
2023/05/05 01:55:47;;;;;;;7.95;5.13;;;17.80;99.90;;;18.25;74.76;101334.59;5097877;28;20048;-71
2023/05/05 01:58:17;;;;;;;6.45;4.97;;;17.80;99.90;;;18.21;74.76;101332.94;5097733;28;20048;-71
2023/05/05 02:00:46;;;;;;;7.90;5.50;;;17.80;99.90;;;18.17;74.85;101331.25;5089249;28;20055;-71
2023/05/05 02:03:18;;;;;;;5.93;4.93;;;17.70;99.90;;;18.12;74.85;101336.72;5115893;28;20044;-71
2023/05/05 02:05:49;;;;;;;8.73;5.55;;;17.70;99.90;;;18.07;75.12;101325.28;5111630;28;20047;-71
2023/05/05 02:08:18;;;;;;;6.90;4.85;;;17.60;99.90;;;17.58;75.20;101247.25;5112510;28;20066;-71
2023/05/05 02:10:49;;;;;;;7.47;5.00;;;17.60;99.90;;;17.98;75.38;101326.41;5097401;28;20143;-71
2023/05/05 02:13:19;;;;;;;8.60;5.10;;;17.60;99.90;;;17.99;75.38;101333.53;5097484;28;20055;-71
2023/05/05 02:15:49;;;;;;;8.55;5.35;;;17.50;99.90;;;17.98;75.53;101336.25;5115488;28;20062;-71
2023/05/05 02:18:19;;;;;;;10.10;5.38;;;17.50;99.90;;;17.93;75.78;101335.47;5115901;28;20048;-71
2023/05/05 02:20:48;;;;;;;8.65;5.07;;;17.50;99.90;;;17.83;75.95;101331.28;5115365;28;20054;-70
2023/05/05 02:23:17;;;;;;;7.45;5.35;;;17.40;99.90;;;17.77;76.22;101343.03;5097243;28;20036;-71
2023/05/05 02:25:50;;;;;;;6.43;5.10;;;17.30;99.90;;;17.74;76.27;101352.94;5111884;28;20063;-71
2023/05/05 02:28:22;;;;;;;9.05;5.72;;;17.30;99.90;;;17.75;76.28;101349.38;5115446;28;20093;-71
2023/05/05 02:30:57;;;;;;;10.00;6.32;;;17.30;99.90;;;17.77;76.64;101347.50;5115467;28;20086;-70
2023/05/05 02:33:32;;;;;;;9.25;5.82;;;17.30;99.90;;;17.68;76.94;101345.97;5093692;28;20139;-70
2023/05/05 02:36:10;;;;;;;13.32;5.72;;;17.30;99.90;;;17.70;77.31;101348.59;5091820;28;20071;-70
2023/05/05 02:38:53;;;;;;;8.88;6.38;;;17.30;99.90;;;17.67;77.75;101352.22;5097106;28;20079;-70
2023/05/05 02:41:25;;;;;;;8.25;6.38;;;17.20;99.90;;;17.67;77.69;101343.34;5085891;28;20062;-70
2023/05/05 02:43:57;;;;;;;7.30;6.18;;;17.30;99.90;;;17.70;77.66;101352.16;5088788;28;20062;-71
2023/05/05 02:46:28;;;;;;;10.73;6.72;;;17.30;99.90;;;17.56;77.57;101353.41;5096795;28;20083;-70
2023/05/05 02:48:59;;;;;;;9.15;7.32;;;17.20;99.90;;;17.52;78.28;101351.72;5085172;28;20378;-70
2023/05/05 02:51:28;;;;;;;10.05;7.45;;;17.10;99.90;;;17.42;78.58;101355.53;5083664;28;20075;-70
2023/05/05 02:54:00;;;;;;;10.32;7.40;;;17.10;99.90;;;17.38;78.77;101364.56;5115028;28;20039;-70
2023/05/05 02:56:40;;;;;;;12.57;8.45;;;17.00;99.90;;;17.26;79.19;101360.38;5096651;28;20373;-70
2023/05/05 02:59:18;;;;;;;17.48;11.57;;;16.90;99.90;;;17.23;79.77;101368.44;5084809;28;20055;-69
2023/05/05 03:02:01;;;;;;;15.00;11.30;;;16.80;99.90;;;17.13;80.17;101354.44;5078035;28;20401;-70
2023/05/05 03:04:40;;;;;;;19.52;13.80;;;16.70;99.90;;;17.20;80.42;101362.31;5093096;28;20109;-70
2023/05/05 03:07:14;;;;;;;24.50;14.80;;;16.70;99.90;;;17.19;80.65;101357.88;5077495;28;20040;-71
2023/05/05 03:09:57;;;;;;;22.83;17.17;;;16.70;99.90;;;17.07;80.92;101354.56;5096427;28;20044;-70
2023/05/05 03:12:32;;;;;;;24.60;18.20;;;16.80;99.90;;;17.21;81.14;101340.03;5093340;28;20485;-70
2023/05/05 03:15:14;;;;;;;27.80;19.52;;;16.80;99.90;;;17.19;81.45;101325.81;5088506;28;20040;-70
2023/05/05 03:17:45;;;;;;;28.90;21.23;;;16.80;99.90;;;17.26;81.68;101338.09;5101284;28;20055;-70
2023/05/05 03:20:16;;;;;;;28.52;19.55;;;16.80;99.90;;;17.29;81.77;101341.56;5088044;28;20504;-70
2023/05/05 03:22:48;;;;;;;33.90;22.80;;;16.90;99.90;;;17.30;81.73;101345.13;5114491;28;20089;-70
2023/05/05 03:25:16;;;;;;;30.75;22.45;;;16.90;99.90;;;17.35;81.71;101351.22;5087849;28;20063;-70
2023/05/05 03:27:45;;;;;;;32.05;23.73;;;16.90;99.90;;;17.34;81.69;101347.72;5095979;28;20043;-70
2023/05/05 03:30:20;;;;;;;36.03;24.52;;;16.90;99.90;;;17.34;81.65;101353.06;5083678;28;20044;-70
2023/05/05 03:32:51;;;;;;;33.25;25.13;;;16.90;99.90;;;17.32;81.64;101362.03;5076561;28;20044;-70
2023/05/05 03:35:22;;;;;;;36.10;25.88;;;16.90;99.90;;;17.31;81.56;101349.56;5113832;28;20043;-70
2023/05/05 03:37:51;;;;;;;36.45;25.30;;;16.90;99.90;;;17.28;81.72;101361.22;5095920;28;20484;-70
2023/05/05 03:40:19;;;;;;;36.72;26.70;;;16.80;99.90;;;17.24;81.89;101366.66;5095704;28;20039;-70
2023/05/05 03:43:01;;;;;;;36.85;27.02;;;16.80;99.90;;;17.25;81.79;101355.94;5084502;28;20397;-70
2023/05/05 03:45:30;;;;;;;36.75;28.00;;;16.80;99.90;;;17.25;81.96;101355.06;5087576;28;20573;-70
2023/05/05 03:47:58;;;;;;;38.85;29.45;;;16.80;99.90;;;17.17;82.24;101358.78;5095463;28;20548;-70
2023/05/05 03:50:28;;;;;;;37.40;29.30;;;16.80;99.90;;;17.13;82.60;101365.13;5113911;28;20044;-70
2023/05/05 03:52:56;;;;;;;40.97;29.08;;;16.70;99.90;;;17.12;82.92;101371.41;5095503;28;20048;-70
2023/05/05 03:55:25;;;;;;;36.10;28.60;;;16.70;99.90;;;17.15;83.10;101375.78;5095497;28;20447;-70
2023/05/05 03:57:53;;;;;;;38.45;28.95;;;16.70;99.90;;;17.09;82.98;101363.44;5113776;28;20039;-70
2023/05/05 04:00:22;;;;;;;44.67;29.10;;;16.70;99.90;;;17.19;83.06;101380.13;5095097;28;20183;-70
2023/05/05 04:02:50;;;;;;;43.75;30.13;;;16.70;99.90;;;16.71;82.84;101293.06;5074835;28;20154;-70
2023/05/05 04:05:21;;;;;;;42.40;30.80;;;16.70;99.90;;;17.14;82.48;101361.53;5095281;28;20050;-70
2023/05/05 04:07:51;;;;;;;38.42;28.85;;;16.70;99.90;;;17.13;82.67;101372.25;5087149;28;20253;-70
2023/05/05 04:10:20;;;;;;;41.45;30.83;;;16.70;99.90;;;16.59;82.61;101280.88;5095228;28;20560;-70
2023/05/05 04:12:48;;;;;;;42.45;30.85;;;16.70;99.90;;;17.13;82.75;101381.16;5087108;28;20039;-70
2023/05/05 04:15:17;;;;;;;43.47;31.02;;;16.70;99.90;;;17.09;82.76;101382.16;5095098;28;20048;-70
2023/05/05 04:17:46;;;;;;;39.45;31.10;;;16.70;99.90;;;16.65;82.82;101303.88;5095119;28;20131;-70
2023/05/05 04:20:14;;;;;;;43.35;30.55;;;16.70;99.90;;;17.01;83.00;101370.75;5095009;28;20131;-70
2023/05/05 04:22:43;;;;;;;41.47;31.13;;;16.70;99.90;;;17.12;83.09;101390.09;5083117;28;20052;-70
2023/05/05 04:25:12;;;;;;;39.70;31.15;;;16.70;99.90;;;17.14;83.14;101388.28;5109500;28;20042;-70
2023/05/05 04:27:41;;;;;;;42.43;31.27;;;16.70;99.90;;;17.13;83.42;101389.19;5086753;28;20066;-70
2023/05/05 04:30:10;;;;;;;38.78;30.17;;;16.70;99.90;;;17.08;83.36;101376.84;5094897;28;20047;-70
2023/05/05 04:32:41;;;;;;;37.13;30.98;;;16.70;99.90;;;17.13;83.38;101386.50;5095000;28;20388;-70
2023/05/05 04:35:10;;;;;;;37.60;30.92;;;16.70;99.90;;;17.14;83.66;101395.41;5094960;28;20055;-70
2023/05/05 04:37:39;;;;;;;40.72;29.23;;;16.70;99.90;;;17.10;83.76;101394.63;5094743;28;20104;-70
2023/05/05 04:40:10;;;;;;;40.13;30.15;;;16.70;99.90;;;17.09;83.60;101403.53;5094840;28;20778;-70
2023/05/05 04:42:40;;;;;;;36.28;28.75;;;16.60;99.90;;;16.45;83.42;101277.63;5091036;28;20051;-70
2023/05/05 04:45:10;;;;;;;35.47;28.60;;;16.70;99.90;;;17.03;83.72;101395.63;5112874;28;20396;-70
2023/05/05 04:47:39;;;;;;;35.28;28.30;;;16.60;99.90;;;16.91;84.43;101392.38;5112728;28;20036;-70
2023/05/05 04:50:10;;;;;;;39.63;28.38;;;16.50;99.90;;;16.92;85.00;101389.66;5094666;28;20048;-70
2023/05/05 04:52:39;;;;;;;36.60;28.33;;;16.50;99.90;;;16.97;85.15;101385.13;5086605;28;20078;-70
2023/05/05 04:55:10;;;;;;;36.78;30.10;;;16.50;99.90;;;17.05;84.74;101382.28;5094443;28;20058;-70
2023/05/05 04:57:40;;;;;;;35.28;29.13;;;16.60;99.90;;;17.11;84.58;101390.16;5083178;28;20055;-70
2023/05/05 05:00:10;;;;;;;36.87;30.50;;;16.70;99.90;;;17.15;84.31;101400.72;5074264;28;20134;-70
2023/05/05 05:02:38;;;;;;;37.10;29.25;;;16.70;99.90;;;17.24;84.26;101396.09;5112774;28;20401;-70
2023/05/05 05:05:08;;;;;;;38.53;30.33;;;16.80;99.90;;;17.25;84.16;101397.84;5086553;28;20067;-70
2023/05/05 05:07:37;;;;;;;42.58;29.55;;;16.80;99.90;;;17.33;84.25;101415.47;5112540;28;20458;-70
2023/05/05 05:10:06;;;;;;;37.45;29.95;;;16.90;99.90;;;17.38;84.39;101412.69;5086407;28;20396;-70
2023/05/05 05:12:36;;;;;;;35.60;29.60;;;16.90;99.90;;;17.51;84.19;101409.72;5094584;28;20044;-70
2023/05/05 05:15:08;;;;;;;39.95;30.30;;;17.00;99.90;;;17.60;84.17;101411.28;5095809;28;20070;-70
2023/05/05 05:17:36;;;;;;;36.45;29.13;;;17.10;99.90;;;17.59;84.44;101407.75;5112557;28;20540;-71
2023/05/05 05:20:07;;;;;;;41.05;30.17;;;17.20;99.90;;;17.68;84.45;101411.97;5094709;28;20039;-70
2023/05/05 05:22:37;;;;;;;36.03;29.65;;;17.30;99.90;;;17.79;84.41;101416.13;5098489;28;20164;-70
2023/05/05 05:25:09;;;;;;;37.75;30.42;;;17.30;99.90;;;17.87;84.05;101418.63;5090279;28;20404;-70
2023/05/05 05:27:38;;;;;;;36.70;29.60;;;17.50;99.90;;;17.94;84.01;101404.19;5097929;28;20085;-71
2023/05/05 05:30:10;;;;;;;37.97;29.73;;;17.50;99.90;;;18.08;83.80;101407.34;5090122;28;20044;-71
2023/05/05 05:32:38;;;;;;;36.85;29.92;;;17.60;99.90;;;18.20;84.19;101409.72;5116599;28;20039;-71
2023/05/05 05:35:08;;;;;;;35.85;29.38;;;17.80;99.90;;;18.26;83.61;101400.63;5090786;28;20043;-70
2023/05/05 05:37:36;;;;;;;37.35;30.00;;;17.90;99.90;;;18.37;82.60;101404.75;5098155;28;20096;-71
2023/05/05 05:40:07;;;;;;;36.40;29.40;;;18.00;99.90;;;18.46;82.03;101406.34;5089925;28;20074;-71
2023/05/05 05:42:38;;;;;;;39.47;31.02;;;18.10;99.90;;;18.57;82.01;101418.53;5098080;28;20051;-71
2023/05/05 05:45:10;;;;;;;36.75;30.60;;;18.20;99.90;;;18.65;82.46;101437.06;5089682;28;20075;-70
2023/05/05 05:47:39;;;;;;;37.50;30.00;;;18.20;99.90;;;18.85;82.27;101448.97;5094599;28;20055;-71
2023/05/05 05:50:09;;;;;;;33.13;29.42;;;18.40;99.90;;;19.06;81.71;101450.16;5085373;28;20131;-71
2023/05/05 05:52:38;;;;;;;34.83;29.60;;;18.60;99.90;;;19.26;80.60;101454.91;5112622;28;20046;-71
2023/05/05 05:55:09;;;;;;;37.75;29.77;;;18.80;99.90;;;18.87;79.94;101353.28;5097631;28;20074;-71
2023/05/05 05:57:39;;;;;;;39.53;30.67;;;19.00;99.90;;;19.65;79.15;101453.66;5089344;28;20044;-70
2023/05/05 06:00:13;;;;;;;36.95;28.73;;;19.20;99.90;;;19.73;77.89;101449.81;5097495;28;20059;-71
2023/05/05 06:02:44;;;;;;;32.40;26.73;;;19.30;99.90;;;19.92;76.86;101470.72;5086057;28;20056;-71
2023/05/05 06:05:17;;;;;;;36.55;27.33;;;19.50;99.90;;;20.02;76.57;101461.38;5078075;28;20047;-71
2023/05/05 06:07:47;;;;;;;34.58;27.00;;;19.50;99.90;;;20.20;76.64;101477.81;5097592;28;20488;-71
2023/05/05 06:10:16;;;;;;;30.42;26.05;;;19.70;99.90;;;20.27;75.70;101481.16;5089279;28;20089;-71
2023/05/05 06:13:01;;;;;;;29.65;23.75;;;19.80;99.90;;;20.46;75.38;101479.59;5093881;28;20047;-71
2023/05/05 06:15:33;;;;;;;27.15;21.30;;;20.00;99.90;;;20.59;73.86;101476.44;5097464;28;20492;-71
2023/05/05 06:18:03;;;;;;;26.85;21.67;;;20.20;99.90;;;20.61;73.10;101479.91;5088979;28;20094;-71
2023/05/05 06:20:32;;;;;;;27.17;22.40;;;20.20;99.90;;;20.68;72.62;101476.09;5097293;28;20458;-71
2023/05/05 06:23:00;;;;;;;27.75;20.65;;;20.30;99.90;;;20.71;72.25;101476.91;5115940;28;20066;-71
2023/05/05 06:25:32;;;;;;;23.42;19.65;;;20.30;99.90;;;20.57;71.98;101472.03;5093656;28;20519;-71
2023/05/05 06:28:00;;;;;;;22.20;17.92;;;20.20;99.90;;;20.51;71.48;101467.75;5085169;28;20062;-71
2023/05/05 06:30:29;;;;;;;24.17;18.67;;;20.10;99.90;;;20.54;71.07;101488.25;5111325;28;20096;-71
2023/05/05 06:32:59;;;;;;;22.63;18.88;;;20.10;99.90;;;20.45;71.09;101486.78;5115394;28;20051;-71
2023/05/05 06:35:29;;;;;;;22.63;19.00;;;20.00;99.90;;;20.38;71.30;101490.59;5115102;28;20035;-73
2023/05/05 06:37:57;;;;;;;21.23;17.58;;;20.00;99.90;;;20.40;71.86;101501.31;5115579;28;20035;-69
2023/05/05 06:40:25;;;;;;;22.85;19.42;;;20.00;99.90;;;20.37;72.46;101506.78;5115315;28;20063;-70
2023/05/05 06:42:54;;;;;;;22.35;18.42;;;20.00;99.90;;;20.35;73.12;101500.59;5115094;28;20450;-72
2023/05/05 06:45:27;;;;;;;22.60;18.25;;;19.90;99.90;;;20.39;73.23;101500.44;5096771;28;20032;-69
2023/05/05 06:47:57;;;;;;;24.05;17.45;;;20.00;99.90;;;20.45;72.69;101502.91;5111106;28;20040;-69
2023/05/05 06:50:26;;;;;;;23.15;17.98;;;20.00;99.90;;;20.38;72.30;101485.22;5084954;28;20541;-67
2023/05/05 06:52:54;;;;;;;21.67;17.92;;;20.00;99.90;;;20.45;71.61;101493.97;5114648;28;20075;-70
2023/05/05 06:55:23;;;;;;;21.73;16.02;;;20.00;99.90;;;20.37;71.50;101486.16;5096507;28;20036;-71
2023/05/05 06:57:52;;;;;;;20.63;16.48;;;20.00;99.90;;;20.36;71.23;101487.09;5114501;28;20439;-70
2023/05/05 07:00:25;;;;;;;20.25;15.82;;;20.00;99.90;;;20.40;71.12;101498.63;5114311;28;20083;-69
2023/05/05 07:02:54;;;;;;;23.83;15.95;;;19.90;99.90;;;20.43;71.27;101496.72;5114462;28;20108;-69
2023/05/05 07:05:24;;;;;;;19.63;16.15;;;20.00;99.90;;;20.49;71.64;101496.50;5114437;28;20396;-69
2023/05/05 07:07:53;;;;;;;19.77;16.27;;;20.10;99.90;;;20.56;71.50;101487.28;5110670;28;20043;-69
2023/05/05 07:10:23;;;;;;;23.13;16.13;;;20.10;99.90;;;20.58;70.80;101495.28;5114123;28;20073;-69
2023/05/05 07:12:53;;;;;;;20.48;15.65;;;20.20;99.90;;;20.55;70.40;101490.03;5114049;28;20044;-70
2023/05/05 07:15:22;;;;;;;20.02;15.23;;;20.10;99.90;;;20.48;70.86;101501.91;5114445;28;20052;-69
2023/05/05 07:17:56;;;;;;;20.48;14.43;;;20.10;99.90;;;20.45;70.79;101497.53;5114393;28;20048;-69
2023/05/05 07:20:26;;;;;;;16.73;14.18;;;20.00;99.90;;;20.42;71.12;101500.31;5113973;28;20050;-69
2023/05/05 07:22:55;;;;;;;15.07;13.43;;;20.00;99.90;;;20.43;70.86;101491.34;5110735;28;20401;-70
2023/05/05 07:25:23;;;;;;;17.70;13.95;;;20.00;99.90;;;20.46;70.89;101499.28;5114002;28;20119;-68
2023/05/05 07:27:52;;;;;;;17.75;14.18;;;20.00;99.90;;;20.03;71.07;101453.31;5114280;28;20047;-70
2023/05/05 07:30:20;;;;;;;17.33;13.55;;;20.00;99.90;;;20.40;71.03;101496.78;5113756;28;20039;-67
2023/05/05 07:32:50;;;;;;;17.27;13.18;;;19.90;99.90;;;20.35;71.61;101492.53;5113907;28;20047;-69
2023/05/05 07:35:19;;;;;;;19.20;13.87;;;20.00;99.90;;;20.17;71.90;101485.06;5113835;28;20122;-67
2023/05/05 07:37:50;;;;;;;15.20;12.95;;;19.90;99.90;;;20.09;71.74;101473.72;5095070;28;20138;-68
2023/05/05 07:40:19;;;;;;;16.15;12.75;;;19.90;99.90;;;20.18;72.17;101503.84;5113655;28;20074;-78
2023/05/05 07:42:48;;;;;;;41.22;14.43;;;19.80;99.90;;;20.21;72.58;101514.50;5113550;28;20603;-73
2023/05/05 07:45:17;;;;;;;15.43;12.43;;;19.70;99.90;;;20.16;72.80;101519.13;5091836;28;20040;-71
2023/05/05 07:47:46;;;;;;;18.33;13.02;;;19.70;99.90;;;20.20;72.52;101519.91;5113618;28;20555;-71
2023/05/05 07:50:15;;;;;;;16.45;12.35;;;19.70;99.90;;;20.20;72.79;101511.84;5113508;28;20044;-71
2023/05/05 07:52:43;;;;;;;14.98;11.65;;;19.80;99.90;;;20.24;72.42;101517.09;5113515;28;20122;-71
2023/05/05 07:55:22;;;;;;;13.35;11.25;;;19.80;99.90;;;20.21;72.28;101510.94;5113562;28;20558;-70
2023/05/05 07:57:50;;;;;;;15.90;11.17;;;19.80;99.90;;;20.23;72.62;101520.69;5113721;28;20104;-69
2023/05/05 08:00:20;;;;;;;13.88;10.45;;;19.80;99.90;;;20.27;73.02;101518.78;5109459;28;20281;-69
2023/05/05 08:02:49;;;;;;;15.13;10.40;;;19.80;99.90;;;20.26;72.70;101523.28;5113294;28;20040;-69
2023/05/05 08:05:18;;;;;;;15.80;11.55;;;19.80;99.90;;;20.20;72.49;101519.91;5113531;28;20075;-69
2023/05/05 08:07:46;;;;;;;12.40;11.10;;;19.80;99.90;;;20.25;72.48;101524.19;5112892;28;20067;-69
2023/05/05 08:10:14;;;;;;;15.35;9.75;;;19.80;99.90;;;20.18;72.16;101525.34;5113103;28;20100;-69
2023/05/05 08:12:44;;;;;;;15.20;10.90;;;19.80;99.90;;;19.47;72.93;101427.44;5113322;28;20036;-69
2023/05/05 08:15:12;;;;;;;12.60;9.63;;;19.70;99.90;;;20.12;72.48;101536.25;5113328;28;20129;-69
2023/05/05 08:17:46;;;;;;;12.35;9.30;;;19.70;99.90;;;20.17;72.04;101538.81;5095221;28;20056;-70
2023/05/05 08:20:15;;;;;;;10.57;8.18;;;19.70;99.90;;;20.14;72.47;101547.84;5109851;28;20392;-69
2023/05/05 08:22:44;;;;;;;9.25;7.03;;;19.70;99.90;;;19.98;71.83;101529.56;5113706;28;20043;-69
2023/05/05 08:25:14;;;;;;;10.38;6.80;;;19.70;99.90;;;20.15;71.30;101543.34;5103793;28;20044;-69
2023/05/05 08:27:44;;;;;;;10.63;6.93;;;19.70;99.90;;;20.02;70.78;101521.38;5113278;28;20067;-69
2023/05/05 08:30:16;;;;;;;8.25;6.82;;;19.70;99.90;;;20.13;71.56;101543.38;5112994;28;20039;-69
2023/05/05 08:32:44;;;;;;;10.70;6.65;;;19.70;99.90;;;20.04;73.01;101540.13;5113079;28;20046;-69
2023/05/05 08:35:13;;;;;;;8.82;7.25;;;19.60;99.90;;;20.02;74.17;101542.84;5083135;28;20040;-70
2023/05/05 08:37:41;;;;;;;8.88;7.65;;;19.60;99.90;;;19.96;73.98;101537.69;5109356;28;20100;-69
2023/05/05 08:40:13;;;;;;;10.15;7.55;;;19.60;99.90;;;19.95;73.97;101545.78;5109427;28;20040;-69
2023/05/05 08:42:45;;;;;;;11.75;8.85;;;19.50;99.90;;;19.95;74.25;101544.00;5112722;28;20048;-69
2023/05/05 08:45:13;;;;;;;10.93;8.32;;;19.50;99.90;;;19.99;74.90;101532.22;5113047;28;20123;-72
2023/05/05 08:47:43;;;;;;;9.60;8.43;;;19.50;99.90;;;19.97;74.77;101543.94;5112909;28;20396;-71
2023/05/05 08:50:12;;;;;;;9.53;8.57;;;19.50;99.90;;;20.00;74.93;101551.88;5115960;28;20035;-70
2023/05/05 08:52:43;;;;;;;11.82;8.25;;;19.60;99.90;;;19.92;75.35;101540.53;5117161;28;20052;-70
2023/05/05 08:55:17;;;;;;;10.77;8.00;;;19.50;99.90;;;19.76;75.19;101513.28;5113093;28;20071;-70
2023/05/05 08:57:52;;;;;;;10.57;7.50;;;19.50;99.90;;;19.94;74.64;101538.69;5116270;28;20035;-70
2023/05/05 09:00:22;;;;;;;16.85;8.50;;;19.50;99.90;;;19.95;73.95;101545.78;5116760;28;20060;-70
2023/05/05 09:02:50;;;;;;;12.33;8.27;;;19.50;99.90;;;19.38;73.96;101451.88;5117189;28;20071;-70
2023/05/05 09:05:19;;;;;;;10.38;8.13;;;19.50;99.90;;;19.94;74.19;101555.66;5116533;28;20043;-70
2023/05/05 09:07:47;;;;;;;12.93;8.77;;;19.50;99.90;;;19.97;74.80;101547.50;5112644;28;20445;-70
2023/05/05 09:10:16;;;;;;;10.60;8.75;;;19.50;99.90;;;19.98;74.59;101554.63;5113004;28;20061;-70
2023/05/05 09:12:48;;;;;;;11.85;8.18;;;19.50;99.90;;;19.94;74.65;101546.75;5116777;28;20326;-70
2023/05/05 09:15:17;;;;;;;12.60;8.85;;;19.50;99.90;;;19.97;74.81;101547.50;5116685;28;20040;-71
2023/05/05 09:17:45;;;;;;;12.45;8.27;;;19.60;99.90;;;20.01;75.11;101551.88;5116651;28;20361;-69
2023/05/05 09:20:15;;;;;;;15.73;9.38;;;19.60;99.90;;;19.95;75.00;101552.06;5116638;28;20472;-70
2023/05/05 09:22:45;;;;;;;11.50;8.32;;;19.60;99.90;;;19.83;75.35;101552.44;5098440;28;20051;-71
2023/05/05 09:25:14;;;;;;;;;;;19.50;99.90;;;19.84;76.46;101566.75;5116898;28;20411;-71
2023/05/05 09:27:45;;;;;;;14.70;9.88;;;19.50;99.90;;;19.75;76.56;101576.84;5112408;28;19924;-71
2023/05/05 09:30:18;;;;;;;14.18;9.50;;;19.40;99.90;;;19.69;76.14;101570.78;5116134;28;20114;-71
2023/05/05 09:32:48;;;;;;;15.40;10.98;;;19.30;99.90;;;19.65;76.55;101569.09;5116365;28;20047;-68
2023/05/05 09:35:18;;;;;;;14.07;10.40;;;19.20;99.90;;;19.69;77.57;101568.09;5116348;28;20446;-70
2023/05/05 09:37:48;;;;;;;11.18;9.25;;;19.20;99.90;;;19.71;77.96;101574.28;5098181;28;20138;-70
2023/05/05 09:40:18;;;;;;;13.48;10.43;;;19.30;99.90;;;19.80;78.66;101579.41;5116258;28;20071;-69
2023/05/05 09:42:47;;;;;;;16.42;10.68;;;19.40;99.90;;;19.65;77.85;101572.69;5112003;28;20485;-70
2023/05/05 09:45:27;;;;;;;16.13;10.85;;;19.30;99.90;;;19.58;77.92;101568.44;5115717;28;20139;-69
2023/05/05 09:47:55;;;;;;;15.40;9.90;;;19.20;99.90;;;19.57;78.81;101568.44;5115974;28;20092;-71
2023/05/05 09:50:29;;;;;;;17.77;10.55;;;19.10;99.90;;;19.66;79.14;101573.56;5116130;28;20481;-70
2023/05/05 09:52:59;;;;;;;;;;;19.20;99.90;;;19.57;78.64;101561.28;5112423;28;20501;-70
2023/05/05 09:55:29;;;;;;;15.35;10.48;;;19.20;99.90;;;19.59;78.74;101555.84;5098032;28;19954;-70
2023/05/05 09:58:16;;;;;;;15.75;10.38;;;19.20;99.90;;;19.65;78.63;101548.50;5116082;28;20048;-70
2023/05/05 10:00:47;;;;;;;14.15;9.90;;;19.20;99.90;;;19.79;77.99;101550.78;5096569;28;20138;-70
2023/05/05 10:03:16;;;;;;;14.45;10.23;;;19.30;99.90;;;19.67;76.89;101551.16;5115802;28;20035;-70
2023/05/05 10:05:50;;;;;;;18.10;10.10;;;19.30;99.90;;;19.69;77.21;101558.22;5116116;28;20043;-70
2023/05/05 10:08:20;;;;;;;13.18;9.23;;;19.30;99.90;;;19.72;77.11;101559.97;5115596;28;20043;-70
2023/05/05 10:10:52;;;;;;;16.15;9.55;;;19.30;99.90;;;19.75;76.63;101560.72;5115526;28;20407;-70
2023/05/05 10:13:23;;;;;;;13.82;9.35;;;19.30;99.90;;;19.73;76.56;101545.59;5115808;28;20055;-70
2023/05/05 10:15:55;;;;;;;15.80;9.52;;;19.30;99.90;;;19.80;76.08;101552.53;5112288;28;20040;-70
2023/05/05 10:18:26;;;;;;;12.00;9.75;;;19.30;99.90;;;19.84;76.80;101547.94;5115444;28;20037;-70
2023/05/05 10:20:58;;;;;;;17.02;10.38;;;19.40;99.90;;;19.86;77.15;101556.84;5115711;28;20080;-70